sensor_id;sensor_type;location;lat;lon;timestamp;P1;durP1;ratioP1;P2;durP2;ratioP2
22632;SDS011;11483;55.828;37.488;2024-01-30T00:02:12;11.47;;;5.67;;
22632;SDS011;11483;55.828;37.488;2024-01-30T00:04:38;12.23;;;5.97;;
22632;SDS011;11483;55.828;37.488;2024-01-30T00:07:04;13.37;;;6.33;;
22632;SDS011;11483;55.828;37.488;2024-01-30T00:09:30;11.60;;;5.57;;
22632;SDS011;11483;55.828;37.488;2024-01-30T00:11:56;11.60;;;5.97;;
22632;SDS011;11483;55.828;37.488;2024-01-30T00:14:22;13.10;;;5.80;;
22632;SDS011;11483;55.828;37.488;2024-01-30T00:16:48;11.53;;;5.57;;
22632;SDS011;11483;55.828;37.488;2024-01-30T00:19:14;13.63;;;5.90;;
22632;SDS011;11483;55.828;37.488;2024-01-30T00:21:40;10.53;;;6.00;;
22632;SDS011;11483;55.828;37.488;2024-01-30T00:24:06;10.77;;;5.00;;
22632;SDS011;11483;55.828;37.488;2024-01-30T00:26:32;11.90;;;5.53;;
22632;SDS011;11483;55.828;37.488;2024-01-30T00:28:58;15.47;;;5.60;;
22632;SDS011;11483;55.828;37.488;2024-01-30T00:31:24;11.97;;;5.43;;
22632;SDS011;11483;55.828;37.488;2024-01-30T00:33:50;11.40;;;5.33;;
22632;SDS011;11483;55.828;37.488;2024-01-30T00:36:16;12.17;;;5.30;;
22632;SDS011;11483;55.828;37.488;2024-01-30T00:38:42;12.33;;;5.77;;
22632;SDS011;11483;55.828;37.488;2024-01-30T00:41:09;10.23;;;4.97;;
22632;SDS011;11483;55.828;37.488;2024-01-30T00:43:35;10.40;;;5.27;;
22632;SDS011;11483;55.828;37.488;2024-01-30T00:46:01;10.23;;;5.43;;
22632;SDS011;11483;55.828;37.488;2024-01-30T00:48:27;12.93;;;5.67;;
22632;SDS011;11483;55.828;37.488;2024-01-30T00:50:53;7.83;;;4.30;;
22632;SDS011;11483;55.828;37.488;2024-01-30T00:53:19;13.83;;;5.57;;
22632;SDS011;11483;55.828;37.488;2024-01-30T00:55:45;10.57;;;5.27;;
22632;SDS011;11483;55.828;37.488;2024-01-30T00:58:11;11.50;;;5.50;;
22632;SDS011;11483;55.828;37.488;2024-01-30T01:00:37;14.53;;;5.80;;
22632;SDS011;11483;55.828;37.488;2024-01-30T01:03:02;14.23;;;5.80;;
22632;SDS011;11483;55.828;37.488;2024-01-30T01:05:28;9.27;;;4.77;;
22632;SDS011;11483;55.828;37.488;2024-01-30T01:07:54;14.27;;;5.63;;
22632;SDS011;11483;55.828;37.488;2024-01-30T01:10:20;13.57;;;5.27;;
22632;SDS011;11483;55.828;37.488;2024-01-30T01:12:47;15.77;;;6.00;;
22632;SDS011;11483;55.828;37.488;2024-01-30T01:15:13;10.33;;;4.60;;
22632;SDS011;11483;55.828;37.488;2024-01-30T01:17:39;13.63;;;6.17;;
22632;SDS011;11483;55.828;37.488;2024-01-30T01:20:06;13.63;;;6.53;;
22632;SDS011;11483;55.828;37.488;2024-01-30T01:22:33;11.33;;;5.47;;
22632;SDS011;11483;55.828;37.488;2024-01-30T01:24:59;10.80;;;6.30;;
22632;SDS011;11483;55.828;37.488;2024-01-30T01:27:26;13.43;;;5.83;;
22632;SDS011;11483;55.828;37.488;2024-01-30T01:29:52;16.53;;;5.73;;
22632;SDS011;11483;55.828;37.488;2024-01-30T01:32:19;11.73;;;5.87;;
22632;SDS011;11483;55.828;37.488;2024-01-30T01:34:45;12.90;;;5.57;;
22632;SDS011;11483;55.828;37.488;2024-01-30T01:37:11;13.90;;;5.60;;
22632;SDS011;11483;55.828;37.488;2024-01-30T01:39:37;11.03;;;5.53;;
22632;SDS011;11483;55.828;37.488;2024-01-30T01:42:03;18.83;;;5.90;;
22632;SDS011;11483;55.828;37.488;2024-01-30T01:44:29;11.63;;;5.70;;
22632;SDS011;11483;55.828;37.488;2024-01-30T01:46:55;11.47;;;5.30;;
22632;SDS011;11483;55.828;37.488;2024-01-30T01:49:24;11.53;;;5.50;;
22632;SDS011;11483;55.828;37.488;2024-01-30T01:51:53;11.87;;;5.43;;
22632;SDS011;11483;55.828;37.488;2024-01-30T01:54:21;12.97;;;5.87;;
22632;SDS011;11483;55.828;37.488;2024-01-30T01:56:49;10.67;;;5.00;;
22632;SDS011;11483;55.828;37.488;2024-01-30T01:59:16;11.13;;;5.53;;
22632;SDS011;11483;55.828;37.488;2024-01-30T02:01:45;11.53;;;5.67;;
22632;SDS011;11483;55.828;37.488;2024-01-30T02:04:14;12.10;;;5.80;;
22632;SDS011;11483;55.828;37.488;2024-01-30T02:06:40;14.57;;;5.60;;
22632;SDS011;11483;55.828;37.488;2024-01-30T02:09:07;11.40;;;5.47;;
22632;SDS011;11483;55.828;37.488;2024-01-30T02:11:34;12.07;;;5.07;;
22632;SDS011;11483;55.828;37.488;2024-01-30T02:14:06;12.47;;;6.07;;
22632;SDS011;11483;55.828;37.488;2024-01-30T02:16:32;13.13;;;5.63;;
22632;SDS011;11483;55.828;37.488;2024-01-30T02:18:58;12.97;;;5.87;;
22632;SDS011;11483;55.828;37.488;2024-01-30T02:21:29;9.60;;;5.13;;
22632;SDS011;11483;55.828;37.488;2024-01-30T02:23:55;12.20;;;5.63;;
22632;SDS011;11483;55.828;37.488;2024-01-30T02:26:22;10.53;;;5.67;;
22632;SDS011;11483;55.828;37.488;2024-01-30T02:28:48;10.77;;;5.40;;
22632;SDS011;11483;55.828;37.488;2024-01-30T02:31:13;10.10;;;4.93;;
22632;SDS011;11483;55.828;37.488;2024-01-30T02:33:40;10.83;;;4.83;;
22632;SDS011;11483;55.828;37.488;2024-01-30T02:36:05;10.77;;;6.03;;
22632;SDS011;11483;55.828;37.488;2024-01-30T02:38:31;12.67;;;5.70;;
22632;SDS011;11483;55.828;37.488;2024-01-30T02:40:57;10.43;;;5.77;;
22632;SDS011;11483;55.828;37.488;2024-01-30T02:43:23;10.20;;;5.67;;
22632;SDS011;11483;55.828;37.488;2024-01-30T02:45:49;13.70;;;5.00;;
22632;SDS011;11483;55.828;37.488;2024-01-30T02:48:15;13.53;;;5.73;;
22632;SDS011;11483;55.828;37.488;2024-01-30T02:50:41;13.37;;;5.57;;
22632;SDS011;11483;55.828;37.488;2024-01-30T02:53:07;13.80;;;5.87;;
22632;SDS011;11483;55.828;37.488;2024-01-30T02:55:33;13.60;;;5.93;;
22632;SDS011;11483;55.828;37.488;2024-01-30T02:57:59;10.60;;;5.60;;
22632;SDS011;11483;55.828;37.488;2024-01-30T03:00:24;13.47;;;5.87;;
22632;SDS011;11483;55.828;37.488;2024-01-30T03:02:50;12.53;;;5.77;;
22632;SDS011;11483;55.828;37.488;2024-01-30T03:05:16;9.97;;;5.47;;
22632;SDS011;11483;55.828;37.488;2024-01-30T03:07:43;11.37;;;5.57;;
22632;SDS011;11483;55.828;37.488;2024-01-30T03:10:09;12.17;;;5.30;;
22632;SDS011;11483;55.828;37.488;2024-01-30T03:12:35;8.50;;;5.30;;
22632;SDS011;11483;55.828;37.488;2024-01-30T03:15:01;10.93;;;5.80;;
22632;SDS011;11483;55.828;37.488;2024-01-30T03:17:27;10.67;;;5.47;;
22632;SDS011;11483;55.828;37.488;2024-01-30T03:19:52;16.20;;;5.43;;
22632;SDS011;11483;55.828;37.488;2024-01-30T03:22:18;12.90;;;5.33;;
22632;SDS011;11483;55.828;37.488;2024-01-30T03:24:44;10.73;;;5.33;;
22632;SDS011;11483;55.828;37.488;2024-01-30T03:27:10;13.00;;;5.87;;
22632;SDS011;11483;55.828;37.488;2024-01-30T03:29:36;15.80;;;6.80;;
22632;SDS011;11483;55.828;37.488;2024-01-30T03:32:02;13.30;;;5.60;;
22632;SDS011;11483;55.828;37.488;2024-01-30T03:34:29;12.07;;;5.40;;
22632;SDS011;11483;55.828;37.488;2024-01-30T03:36:55;16.57;;;6.40;;
22632;SDS011;11483;55.828;37.488;2024-01-30T03:39:21;10.83;;;5.43;;
22632;SDS011;11483;55.828;37.488;2024-01-30T03:41:48;12.93;;;5.67;;
22632;SDS011;11483;55.828;37.488;2024-01-30T03:44:13;10.17;;;5.10;;
22632;SDS011;11483;55.828;37.488;2024-01-30T03:46:39;14.40;;;6.27;;
22632;SDS011;11483;55.828;37.488;2024-01-30T03:49:05;13.30;;;6.20;;
22632;SDS011;11483;55.828;37.488;2024-01-30T03:51:31;13.80;;;5.93;;
22632;SDS011;11483;55.828;37.488;2024-01-30T03:53:57;11.50;;;5.80;;
22632;SDS011;11483;55.828;37.488;2024-01-30T03:56:23;12.50;;;5.70;;
22632;SDS011;11483;55.828;37.488;2024-01-30T03:58:50;15.63;;;6.30;;
22632;SDS011;11483;55.828;37.488;2024-01-30T04:01:16;15.87;;;6.03;;
22632;SDS011;11483;55.828;37.488;2024-01-30T04:03:42;15.63;;;5.73;;
22632;SDS011;11483;55.828;37.488;2024-01-30T04:06:09;13.80;;;5.80;;
22632;SDS011;11483;55.828;37.488;2024-01-30T04:08:35;14.97;;;5.80;;
22632;SDS011;11483;55.828;37.488;2024-01-30T04:11:05;14.83;;;6.67;;
22632;SDS011;11483;55.828;37.488;2024-01-30T04:13:32;12.03;;;6.13;;
22632;SDS011;11483;55.828;37.488;2024-01-30T04:16:02;12.03;;;5.93;;
22632;SDS011;11483;55.828;37.488;2024-01-30T04:18:28;16.30;;;6.37;;
22632;SDS011;11483;55.828;37.488;2024-01-30T04:21:00;12.90;;;6.47;;
22632;SDS011;11483;55.828;37.488;2024-01-30T04:23:26;13.47;;;6.23;;
22632;SDS011;11483;55.828;37.488;2024-01-30T04:25:52;12.10;;;6.00;;
22632;SDS011;11483;55.828;37.488;2024-01-30T04:28:18;13.23;;;5.83;;
22632;SDS011;11483;55.828;37.488;2024-01-30T04:30:44;13.03;;;6.03;;
22632;SDS011;11483;55.828;37.488;2024-01-30T04:33:10;14.77;;;6.33;;
22632;SDS011;11483;55.828;37.488;2024-01-30T04:35:37;19.67;;;6.40;;
22632;SDS011;11483;55.828;37.488;2024-01-30T04:38:03;15.27;;;6.30;;
22632;SDS011;11483;55.828;37.488;2024-01-30T04:40:29;14.83;;;6.80;;
22632;SDS011;11483;55.828;37.488;2024-01-30T04:42:55;14.27;;;6.53;;
22632;SDS011;11483;55.828;37.488;2024-01-30T04:45:21;15.47;;;6.37;;
22632;SDS011;11483;55.828;37.488;2024-01-30T04:47:47;16.73;;;6.97;;
22632;SDS011;11483;55.828;37.488;2024-01-30T04:50:13;14.73;;;6.47;;
22632;SDS011;11483;55.828;37.488;2024-01-30T04:52:39;11.43;;;6.23;;
22632;SDS011;11483;55.828;37.488;2024-01-30T04:55:05;16.10;;;7.30;;
22632;SDS011;11483;55.828;37.488;2024-01-30T04:57:31;14.80;;;6.87;;
22632;SDS011;11483;55.828;37.488;2024-01-30T04:59:59;13.03;;;6.00;;
22632;SDS011;11483;55.828;37.488;2024-01-30T05:02:25;14.87;;;6.20;;
22632;SDS011;11483;55.828;37.488;2024-01-30T05:04:50;14.83;;;6.50;;
22632;SDS011;11483;55.828;37.488;2024-01-30T05:07:16;12.13;;;6.10;;
22632;SDS011;11483;55.828;37.488;2024-01-30T05:09:43;14.33;;;6.30;;
22632;SDS011;11483;55.828;37.488;2024-01-30T05:12:09;18.50;;;6.23;;
22632;SDS011;11483;55.828;37.488;2024-01-30T05:14:35;13.90;;;6.40;;
22632;SDS011;11483;55.828;37.488;2024-01-30T05:17:01;11.73;;;6.67;;
22632;SDS011;11483;55.828;37.488;2024-01-30T05:19:28;13.43;;;6.10;;
22632;SDS011;11483;55.828;37.488;2024-01-30T05:21:54;16.53;;;7.17;;
22632;SDS011;11483;55.828;37.488;2024-01-30T05:24:20;17.93;;;6.77;;
22632;SDS011;11483;55.828;37.488;2024-01-30T05:26:46;14.67;;;7.10;;
22632;SDS011;11483;55.828;37.488;2024-01-30T05:29:13;15.57;;;7.73;;
22632;SDS011;11483;55.828;37.488;2024-01-30T05:31:39;12.47;;;6.93;;
22632;SDS011;11483;55.828;37.488;2024-01-30T05:34:05;16.43;;;6.77;;
22632;SDS011;11483;55.828;37.488;2024-01-30T05:36:31;18.83;;;6.60;;
22632;SDS011;11483;55.828;37.488;2024-01-30T05:38:57;14.50;;;7.30;;
22632;SDS011;11483;55.828;37.488;2024-01-30T05:41:23;15.20;;;6.60;;
22632;SDS011;11483;55.828;37.488;2024-01-30T05:43:49;16.30;;;7.03;;
22632;SDS011;11483;55.828;37.488;2024-01-30T05:46:15;14.37;;;6.77;;
22632;SDS011;11483;55.828;37.488;2024-01-30T05:48:41;26.00;;;8.30;;
22632;SDS011;11483;55.828;37.488;2024-01-30T05:51:07;20.43;;;8.00;;
22632;SDS011;11483;55.828;37.488;2024-01-30T05:53:33;14.93;;;6.93;;
22632;SDS011;11483;55.828;37.488;2024-01-30T05:56:03;15.53;;;7.47;;
22632;SDS011;11483;55.828;37.488;2024-01-30T05:58:29;18.73;;;7.63;;
22632;SDS011;11483;55.828;37.488;2024-01-30T06:00:58;17.23;;;7.57;;
22632;SDS011;11483;55.828;37.488;2024-01-30T06:03:24;18.47;;;7.80;;
22632;SDS011;11483;55.828;37.488;2024-01-30T06:05:50;24.20;;;7.43;;
22632;SDS011;11483;55.828;37.488;2024-01-30T06:08:16;44.60;;;19.77;;
22632;SDS011;11483;55.828;37.488;2024-01-30T06:10:42;16.20;;;7.00;;
22632;SDS011;11483;55.828;37.488;2024-01-30T06:13:08;17.50;;;7.73;;
22632;SDS011;11483;55.828;37.488;2024-01-30T06:15:34;16.67;;;7.23;;
22632;SDS011;11483;55.828;37.488;2024-01-30T06:18:00;18.47;;;8.30;;
22632;SDS011;11483;55.828;37.488;2024-01-30T06:20:26;18.03;;;7.37;;
22632;SDS011;11483;55.828;37.488;2024-01-30T06:22:52;20.17;;;7.70;;
22632;SDS011;11483;55.828;37.488;2024-01-30T06:25:18;17.53;;;7.70;;
22632;SDS011;11483;55.828;37.488;2024-01-30T06:27:44;15.97;;;7.37;;
22632;SDS011;11483;55.828;37.488;2024-01-30T06:30:28;20.60;;;8.43;;
22632;SDS011;11483;55.828;37.488;2024-01-30T06:32:54;15.37;;;7.20;;
22632;SDS011;11483;55.828;37.488;2024-01-30T06:35:20;16.83;;;7.70;;
22632;SDS011;11483;55.828;37.488;2024-01-30T06:37:46;20.50;;;7.60;;
22632;SDS011;11483;55.828;37.488;2024-01-30T06:40:12;22.37;;;8.10;;
22632;SDS011;11483;55.828;37.488;2024-01-30T06:42:38;19.13;;;7.30;;
22632;SDS011;11483;55.828;37.488;2024-01-30T06:45:04;18.20;;;7.77;;
22632;SDS011;11483;55.828;37.488;2024-01-30T06:47:31;17.77;;;6.97;;
22632;SDS011;11483;55.828;37.488;2024-01-30T06:49:57;24.80;;;7.37;;
22632;SDS011;11483;55.828;37.488;2024-01-30T06:52:23;19.30;;;7.73;;
22632;SDS011;11483;55.828;37.488;2024-01-30T06:54:49;19.20;;;7.77;;
22632;SDS011;11483;55.828;37.488;2024-01-30T06:57:15;21.60;;;8.30;;
22632;SDS011;11483;55.828;37.488;2024-01-30T06:59:40;20.23;;;9.40;;
22632;SDS011;11483;55.828;37.488;2024-01-30T07:02:08;21.63;;;8.20;;
22632;SDS011;11483;55.828;37.488;2024-01-30T07:04:36;15.57;;;6.87;;
22632;SDS011;11483;55.828;37.488;2024-01-30T07:07:06;14.47;;;7.67;;
22632;SDS011;11483;55.828;37.488;2024-01-30T07:09:37;17.40;;;7.50;;
22632;SDS011;11483;55.828;37.488;2024-01-30T07:12:04;18.17;;;7.43;;
22632;SDS011;11483;55.828;37.488;2024-01-30T07:14:31;19.90;;;8.07;;
22632;SDS011;11483;55.828;37.488;2024-01-30T07:16:57;19.47;;;9.37;;
22632;SDS011;11483;55.828;37.488;2024-01-30T07:19:23;27.77;;;8.83;;
22632;SDS011;11483;55.828;37.488;2024-01-30T07:21:49;19.13;;;7.97;;
22632;SDS011;11483;55.828;37.488;2024-01-30T07:24:14;24.50;;;8.20;;
22632;SDS011;11483;55.828;37.488;2024-01-30T07:26:40;16.40;;;7.70;;
22632;SDS011;11483;55.828;37.488;2024-01-30T07:29:06;17.03;;;8.07;;
22632;SDS011;11483;55.828;37.488;2024-01-30T07:31:32;17.27;;;7.70;;
22632;SDS011;11483;55.828;37.488;2024-01-30T07:33:59;18.13;;;7.97;;
22632;SDS011;11483;55.828;37.488;2024-01-30T07:36:25;16.87;;;7.73;;
22632;SDS011;11483;55.828;37.488;2024-01-30T07:38:53;17.97;;;7.77;;
22632;SDS011;11483;55.828;37.488;2024-01-30T07:41:20;17.90;;;8.17;;
22632;SDS011;11483;55.828;37.488;2024-01-30T07:43:46;15.67;;;7.90;;
22632;SDS011;11483;55.828;37.488;2024-01-30T07:46:12;16.10;;;7.07;;
22632;SDS011;11483;55.828;37.488;2024-01-30T07:48:38;25.40;;;8.10;;
22632;SDS011;11483;55.828;37.488;2024-01-30T07:51:04;25.40;;;8.00;;
22632;SDS011;11483;55.828;37.488;2024-01-30T07:53:30;15.43;;;7.57;;
22632;SDS011;11483;55.828;37.488;2024-01-30T07:56:06;22.47;;;7.73;;
22632;SDS011;11483;55.828;37.488;2024-01-30T07:58:38;16.77;;;8.13;;
22632;SDS011;11483;55.828;37.488;2024-01-30T08:01:04;23.50;;;7.53;;
22632;SDS011;11483;55.828;37.488;2024-01-30T08:03:30;17.83;;;8.17;;
22632;SDS011;11483;55.828;37.488;2024-01-30T08:05:56;24.30;;;8.43;;
22632;SDS011;11483;55.828;37.488;2024-01-30T08:08:22;24.00;;;8.70;;
22632;SDS011;11483;55.828;37.488;2024-01-30T08:10:48;21.73;;;8.00;;
22632;SDS011;11483;55.828;37.488;2024-01-30T08:13:15;17.83;;;7.47;;
22632;SDS011;11483;55.828;37.488;2024-01-30T08:15:40;21.57;;;8.13;;
22632;SDS011;11483;55.828;37.488;2024-01-30T08:18:06;18.77;;;7.70;;
22632;SDS011;11483;55.828;37.488;2024-01-30T08:20:32;19.17;;;8.33;;
22632;SDS011;11483;55.828;37.488;2024-01-30T08:22:58;21.87;;;8.70;;
22632;SDS011;11483;55.828;37.488;2024-01-30T08:25:25;22.07;;;8.70;;
22632;SDS011;11483;55.828;37.488;2024-01-30T08:27:51;21.30;;;8.03;;
22632;SDS011;11483;55.828;37.488;2024-01-30T08:30:17;18.00;;;7.63;;
22632;SDS011;11483;55.828;37.488;2024-01-30T08:32:44;22.63;;;8.30;;
22632;SDS011;11483;55.828;37.488;2024-01-30T08:35:10;22.20;;;8.53;;
22632;SDS011;11483;55.828;37.488;2024-01-30T08:37:39;20.40;;;7.87;;
22632;SDS011;11483;55.828;37.488;2024-01-30T08:40:05;17.93;;;7.70;;
22632;SDS011;11483;55.828;37.488;2024-01-30T08:42:33;19.60;;;7.57;;
22632;SDS011;11483;55.828;37.488;2024-01-30T08:44:59;22.07;;;8.37;;
22632;SDS011;11483;55.828;37.488;2024-01-30T08:47:25;17.40;;;7.87;;
22632;SDS011;11483;55.828;37.488;2024-01-30T08:49:51;19.40;;;8.80;;
22632;SDS011;11483;55.828;37.488;2024-01-30T08:52:17;19.90;;;7.50;;
22632;SDS011;11483;55.828;37.488;2024-01-30T08:54:43;16.47;;;7.97;;
22632;SDS011;11483;55.828;37.488;2024-01-30T08:57:09;21.03;;;8.20;;
22632;SDS011;11483;55.828;37.488;2024-01-30T08:59:35;18.53;;;7.50;;
22632;SDS011;11483;55.828;37.488;2024-01-30T09:02:00;20.43;;;7.50;;
22632;SDS011;11483;55.828;37.488;2024-01-30T09:04:27;23.27;;;8.37;;
22632;SDS011;11483;55.828;37.488;2024-01-30T09:06:53;15.93;;;7.83;;
22632;SDS011;11483;55.828;37.488;2024-01-30T09:09:20;18.00;;;6.93;;
22632;SDS011;11483;55.828;37.488;2024-01-30T09:11:46;21.47;;;7.80;;
22632;SDS011;11483;55.828;37.488;2024-01-30T09:14:12;23.53;;;8.60;;
22632;SDS011;11483;55.828;37.488;2024-01-30T09:16:38;20.67;;;8.07;;
22632;SDS011;11483;55.828;37.488;2024-01-30T09:19:22;20.07;;;8.53;;
22632;SDS011;11483;55.828;37.488;2024-01-30T09:21:48;18.97;;;8.03;;
22632;SDS011;11483;55.828;37.488;2024-01-30T09:24:14;16.53;;;7.97;;
22632;SDS011;11483;55.828;37.488;2024-01-30T09:26:40;19.20;;;8.57;;
22632;SDS011;11483;55.828;37.488;2024-01-30T09:29:06;19.77;;;8.73;;
22632;SDS011;11483;55.828;37.488;2024-01-30T09:31:32;22.73;;;8.67;;
22632;SDS011;11483;55.828;37.488;2024-01-30T09:33:58;26.47;;;7.83;;
22632;SDS011;11483;55.828;37.488;2024-01-30T09:36:24;19.43;;;8.43;;
22632;SDS011;11483;55.828;37.488;2024-01-30T09:38:50;25.60;;;8.43;;
22632;SDS011;11483;55.828;37.488;2024-01-30T09:41:16;25.57;;;8.97;;
22632;SDS011;11483;55.828;37.488;2024-01-30T09:43:47;23.50;;;9.00;;
22632;SDS011;11483;55.828;37.488;2024-01-30T09:46:16;15.10;;;7.93;;
22632;SDS011;11483;55.828;37.488;2024-01-30T09:48:48;18.13;;;7.73;;
22632;SDS011;11483;55.828;37.488;2024-01-30T09:51:15;21.20;;;8.33;;
22632;SDS011;11483;55.828;37.488;2024-01-30T09:53:42;18.80;;;8.23;;
22632;SDS011;11483;55.828;37.488;2024-01-30T09:56:12;21.77;;;7.57;;
22632;SDS011;11483;55.828;37.488;2024-01-30T09:58:38;21.50;;;8.67;;
22632;SDS011;11483;55.828;37.488;2024-01-30T10:01:05;23.93;;;8.47;;
22632;SDS011;11483;55.828;37.488;2024-01-30T10:03:31;19.27;;;8.57;;
22632;SDS011;11483;55.828;37.488;2024-01-30T10:05:57;22.40;;;9.53;;
22632;SDS011;11483;55.828;37.488;2024-01-30T10:08:25;17.63;;;8.23;;
22632;SDS011;11483;55.828;37.488;2024-01-30T10:10:52;22.50;;;9.57;;
22632;SDS011;11483;55.828;37.488;2024-01-30T10:13:17;33.27;;;9.53;;
22632;SDS011;11483;55.828;37.488;2024-01-30T10:15:44;25.17;;;8.63;;
22632;SDS011;11483;55.828;37.488;2024-01-30T10:18:13;18.60;;;7.90;;
22632;SDS011;11483;55.828;37.488;2024-01-30T10:20:38;17.33;;;7.67;;
22632;SDS011;11483;55.828;37.488;2024-01-30T10:23:04;19.40;;;7.63;;
22632;SDS011;11483;55.828;37.488;2024-01-30T10:25:31;21.00;;;8.73;;
22632;SDS011;11483;55.828;37.488;2024-01-30T10:27:57;14.57;;;7.33;;
22632;SDS011;11483;55.828;37.488;2024-01-30T10:30:27;18.60;;;7.90;;
22632;SDS011;11483;55.828;37.488;2024-01-30T10:32:53;28.00;;;7.63;;
22632;SDS011;11483;55.828;37.488;2024-01-30T10:35:20;19.90;;;8.23;;
22632;SDS011;11483;55.828;37.488;2024-01-30T10:37:49;19.10;;;8.30;;
22632;SDS011;11483;55.828;37.488;2024-01-30T10:40:15;17.63;;;7.87;;
22632;SDS011;11483;55.828;37.488;2024-01-30T10:42:45;21.80;;;8.43;;
22632;SDS011;11483;55.828;37.488;2024-01-30T10:45:12;22.17;;;8.67;;
22632;SDS011;11483;55.828;37.488;2024-01-30T10:47:56;20.00;;;7.73;;
22632;SDS011;11483;55.828;37.488;2024-01-30T10:50:25;16.63;;;7.80;;
22632;SDS011;11483;55.828;37.488;2024-01-30T10:52:52;16.60;;;7.77;;
22632;SDS011;11483;55.828;37.488;2024-01-30T10:55:19;23.17;;;8.47;;
22632;SDS011;11483;55.828;37.488;2024-01-30T10:57:48;21.70;;;7.30;;
22632;SDS011;11483;55.828;37.488;2024-01-30T11:00:15;21.30;;;7.97;;
22632;SDS011;11483;55.828;37.488;2024-01-30T11:02:45;18.73;;;8.10;;
22632;SDS011;11483;55.828;37.488;2024-01-30T11:05:12;25.57;;;8.67;;
22632;SDS011;11483;55.828;37.488;2024-01-30T11:07:40;17.17;;;8.37;;
22632;SDS011;11483;55.828;37.488;2024-01-30T11:10:06;20.33;;;8.43;;
22632;SDS011;11483;55.828;37.488;2024-01-30T11:12:38;17.07;;;8.37;;
22632;SDS011;11483;55.828;37.488;2024-01-30T11:17:43;26.97;;;9.33;;
22632;SDS011;11483;55.828;37.488;2024-01-30T11:20:25;18.63;;;8.03;;
22632;SDS011;11483;55.828;37.488;2024-01-30T11:22:59;24.47;;;8.30;;
22632;SDS011;11483;55.828;37.488;2024-01-30T11:25:31;22.03;;;8.17;;
22632;SDS011;11483;55.828;37.488;2024-01-30T11:27:57;26.60;;;9.93;;
22632;SDS011;11483;55.828;37.488;2024-01-30T11:30:30;21.50;;;8.53;;
22632;SDS011;11483;55.828;37.488;2024-01-30T11:33:07;22.30;;;8.87;;
22632;SDS011;11483;55.828;37.488;2024-01-30T11:35:43;17.47;;;8.10;;
22632;SDS011;11483;55.828;37.488;2024-01-30T11:38:10;17.77;;;7.37;;
22632;SDS011;11483;55.828;37.488;2024-01-30T11:40:39;18.57;;;8.03;;
22632;SDS011;11483;55.828;37.488;2024-01-30T11:43:07;18.27;;;8.40;;
22632;SDS011;11483;55.828;37.488;2024-01-30T11:45:34;22.03;;;7.63;;
22632;SDS011;11483;55.828;37.488;2024-01-30T11:48:01;26.57;;;8.30;;
22632;SDS011;11483;55.828;37.488;2024-01-30T11:50:31;22.73;;;9.10;;
22632;SDS011;11483;55.828;37.488;2024-01-30T11:53:00;24.47;;;8.13;;
22632;SDS011;11483;55.828;37.488;2024-01-30T11:55:29;18.37;;;8.23;;
22632;SDS011;11483;55.828;37.488;2024-01-30T11:57:56;21.57;;;8.17;;
22632;SDS011;11483;55.828;37.488;2024-01-30T12:00:23;25.33;;;8.47;;
22632;SDS011;11483;55.828;37.488;2024-01-30T12:02:53;19.00;;;8.70;;
22632;SDS011;11483;55.828;37.488;2024-01-30T12:05:23;21.17;;;8.83;;
22632;SDS011;11483;55.828;37.488;2024-01-30T12:07:50;22.30;;;9.07;;
22632;SDS011;11483;55.828;37.488;2024-01-30T12:10:17;19.40;;;7.60;;
22632;SDS011;11483;55.828;37.488;2024-01-30T12:12:45;22.33;;;8.80;;
22632;SDS011;11483;55.828;37.488;2024-01-30T12:15:12;23.17;;;8.97;;
22632;SDS011;11483;55.828;37.488;2024-01-30T12:17:39;19.33;;;8.77;;
22632;SDS011;11483;55.828;37.488;2024-01-30T12:20:09;20.37;;;8.50;;
22632;SDS011;11483;55.828;37.488;2024-01-30T12:22:37;18.63;;;8.10;;
22632;SDS011;11483;55.828;37.488;2024-01-30T12:25:14;29.20;;;9.43;;
22632;SDS011;11483;55.828;37.488;2024-01-30T12:27:49;23.13;;;8.70;;
22632;SDS011;11483;55.828;37.488;2024-01-30T12:30:16;23.47;;;8.87;;
22632;SDS011;11483;55.828;37.488;2024-01-30T12:32:44;22.73;;;9.20;;
22632;SDS011;11483;55.828;37.488;2024-01-30T12:35:12;19.47;;;8.47;;
22632;SDS011;11483;55.828;37.488;2024-01-30T12:37:39;19.53;;;8.70;;
22632;SDS011;11483;55.828;37.488;2024-01-30T12:40:09;20.63;;;8.23;;
22632;SDS011;11483;55.828;37.488;2024-01-30T12:42:38;18.97;;;8.73;;
22632;SDS011;11483;55.828;37.488;2024-01-30T12:45:04;18.47;;;8.40;;
22632;SDS011;11483;55.828;37.488;2024-01-30T12:47:31;20.23;;;8.47;;
22632;SDS011;11483;55.828;37.488;2024-01-30T12:49:57;24.33;;;8.07;;
22632;SDS011;11483;55.828;37.488;2024-01-30T12:52:23;30.30;;;8.73;;
22632;SDS011;11483;55.828;37.488;2024-01-30T12:54:50;28.00;;;9.23;;
22632;SDS011;11483;55.828;37.488;2024-01-30T12:57:16;20.87;;;8.57;;
22632;SDS011;11483;55.828;37.488;2024-01-30T12:59:43;24.97;;;8.73;;
22632;SDS011;11483;55.828;37.488;2024-01-30T13:02:11;18.17;;;7.83;;
22632;SDS011;11483;55.828;37.488;2024-01-30T13:04:38;16.37;;;7.47;;
22632;SDS011;11483;55.828;37.488;2024-01-30T13:07:04;19.53;;;8.30;;
22632;SDS011;11483;55.828;37.488;2024-01-30T13:09:30;22.80;;;8.37;;
22632;SDS011;11483;55.828;37.488;2024-01-30T13:11:57;17.10;;;8.47;;
22632;SDS011;11483;55.828;37.488;2024-01-30T13:14:24;21.67;;;8.47;;
22632;SDS011;11483;55.828;37.488;2024-01-30T13:16:50;19.20;;;8.13;;
22632;SDS011;11483;55.828;37.488;2024-01-30T13:19:16;25.20;;;9.10;;
22632;SDS011;11483;55.828;37.488;2024-01-30T13:21:42;23.50;;;8.97;;
22632;SDS011;11483;55.828;37.488;2024-01-30T13:24:08;24.47;;;8.77;;
22632;SDS011;11483;55.828;37.488;2024-01-30T13:26:34;21.53;;;9.33;;
22632;SDS011;11483;55.828;37.488;2024-01-30T13:29:01;26.30;;;9.30;;
22632;SDS011;11483;55.828;37.488;2024-01-30T13:31:27;24.40;;;9.20;;
22632;SDS011;11483;55.828;37.488;2024-01-30T13:33:53;27.60;;;10.10;;
22632;SDS011;11483;55.828;37.488;2024-01-30T13:36:20;20.00;;;9.50;;
22632;SDS011;11483;55.828;37.488;2024-01-30T13:38:47;23.53;;;9.43;;
22632;SDS011;11483;55.828;37.488;2024-01-30T13:41:13;33.60;;;11.17;;
22632;SDS011;11483;55.828;37.488;2024-01-30T13:43:39;21.10;;;8.83;;
22632;SDS011;11483;55.828;37.488;2024-01-30T13:46:05;26.87;;;9.60;;
22632;SDS011;11483;55.828;37.488;2024-01-30T13:48:31;25.17;;;10.27;;
22632;SDS011;11483;55.828;37.488;2024-01-30T13:50:57;24.90;;;9.67;;
22632;SDS011;11483;55.828;37.488;2024-01-30T13:53:23;24.50;;;10.83;;
22632;SDS011;11483;55.828;37.488;2024-01-30T13:55:49;28.57;;;9.57;;
22632;SDS011;11483;55.828;37.488;2024-01-30T13:58:15;28.13;;;9.90;;
22632;SDS011;11483;55.828;37.488;2024-01-30T14:00:41;28.60;;;10.33;;
22632;SDS011;11483;55.828;37.488;2024-01-30T14:03:06;27.43;;;10.03;;
22632;SDS011;11483;55.828;37.488;2024-01-30T14:05:32;25.43;;;9.97;;
22632;SDS011;11483;55.828;37.488;2024-01-30T14:07:58;34.10;;;10.67;;
22632;SDS011;11483;55.828;37.488;2024-01-30T14:10:25;25.70;;;9.63;;
22632;SDS011;11483;55.828;37.488;2024-01-30T14:12:51;26.33;;;9.70;;
22632;SDS011;11483;55.828;37.488;2024-01-30T14:15:17;23.23;;;9.80;;
22632;SDS011;11483;55.828;37.488;2024-01-30T14:17:43;25.63;;;9.80;;
22632;SDS011;11483;55.828;37.488;2024-01-30T14:20:10;22.97;;;9.20;;
22632;SDS011;11483;55.828;37.488;2024-01-30T14:22:37;25.33;;;9.60;;